Accueil
METAR-TAF:

METAR-TAF

Aéroports :

Penn Valley Airport

Selinsgrove, Pennsylvanie, États-Unis

latitude: 40-49-09N, longitude: 076-51-58W, altitude: 137 m

Observation

Le bulletin a été fait il y a 38 minutes, à 05:53 UTC
Vent 5 kt de direction variable
Température 18°C
Humidité 68%
Pression 1007 hPa
Visibilité: 16.1 km
Nuages épars à une hauteur de 6000 ft

METAR: KSEG 030553Z AUTO VRB05KT 10SM SCT060 18/12 A2974 RMK AO2 SLP070 T01780122 10206 20150 56023

Heure: 02:31 (06:31 UTC)


TAF: absent

Observations et prévisions météorologiques de plus de 4000 aéroports (messages METAR et TAF).

Les stations disponibles sont représentées par des disques jaunes et rouges sur la carte.

Passer la souris dessus pour voir le nom de la station.

Cliquer dessus pour voir les observations et prévisions météorologiques.

Pour changer de carte: cliquez sur les boutons verts avec une croix noire pour zoomer, sur le bouton vert avec un tiret pour effectuer un zoom arrière, ou sur les flèches vertes pour les cartes adjacentes.


METAR-TAF: